createdAt,value
2018-12-26T00:00:27.340Z,83.63
2018-12-26T00:01:27.442Z,83.63
2018-12-26T00:02:27.318Z,83.42
2018-12-26T00:03:28.474Z,80.21
2018-12-26T00:04:27.308Z,83.01
2018-12-26T00:05:27.548Z,82.70
2018-12-26T00:06:27.280Z,82.80
2018-12-26T00:07:34.952Z,83.01
2018-12-26T00:08:27.246Z,81.45
2018-12-26T00:09:29.361Z,80.31
2018-12-26T00:10:27.225Z,83.53
2018-12-26T00:11:28.331Z,82.70
2018-12-26T00:12:27.206Z,80.62
2018-12-26T00:13:27.321Z,79.58
2018-12-26T00:14:27.199Z,80.10
2018-12-26T00:15:27.328Z,79.90
2018-12-26T00:16:27.162Z,80.73
2018-12-26T00:17:27.359Z,81.14
2018-12-26T00:18:27.291Z,80.00
2018-12-26T00:19:27.288Z,81.04
2018-12-26T00:20:27.419Z,80.41
2018-12-26T00:21:27.269Z,82.39
2018-12-26T00:22:27.095Z,81.35
2018-12-26T00:23:27.280Z,80.10
2018-12-26T00:24:27.098Z,79.58
2018-12-26T00:25:27.200Z,79.90
2018-12-26T00:26:27.049Z,81.24
2018-12-26T00:27:27.206Z,80.93
2018-12-26T00:28:27.031Z,79.48
2018-12-26T00:29:27.144Z,81.38
2018-12-26T00:30:27.022Z,80.93
2018-12-26T00:31:27.128Z,79.48
2018-12-26T00:32:26.980Z,81.66
2018-12-26T00:33:27.138Z,82.28
2018-12-26T00:34:26.978Z,79.58
2018-12-26T00:35:27.154Z,80.73
2018-12-26T00:36:26.950Z,79.58
2018-12-26T00:37:27.076Z,81.35
2018-12-26T00:38:26.924Z,82.07
2018-12-26T00:39:27.108Z,80.52
2018-12-26T00:40:26.906Z,81.45
2018-12-26T00:41:28.442Z,82.70
2018-12-26T00:42:26.873Z,83.67
2018-12-26T00:43:27.006Z,80.97
2018-12-26T00:44:26.864Z,80.93
2018-12-26T00:45:27.352Z,81.24
2018-12-26T00:46:26.949Z,81.45
2018-12-26T00:47:28.313Z,82.39
2018-12-26T00:48:26.878Z,82.59
2018-12-26T00:49:27.993Z,82.28
2018-12-26T00:50:26.816Z,81.14
2018-12-26T00:51:27.056Z,81.56
2018-12-26T00:52:26.874Z,79.90
2018-12-26T00:53:27.054Z,82.39
2018-12-26T00:54:26.764Z,79.79
2018-12-26T00:55:26.883Z,82.70
2018-12-26T00:56:26.719Z,81.59
2018-12-26T00:57:26.897Z,80.62
2018-12-26T00:58:26.702Z,80.83
2018-12-26T00:59:26.845Z,82.80
2018-12-26T01:00:26.745Z,83.94
2018-12-26T01:01:26.825Z,83.36
2018-12-26T01:02:26.658Z,81.90
2018-12-26T01:03:26.852Z,82.32
2018-12-26T01:04:26.939Z,80.87
2018-12-26T01:05:26.751Z,82.73
2018-12-26T01:06:26.696Z,84.39
2018-12-26T01:07:26.761Z,82.63
2018-12-26T01:08:26.611Z,82.73
2018-12-26T01:09:27.004Z,83.53
2018-12-26T01:10:27.570Z,80.97
2018-12-26T01:11:26.683Z,81.28
2018-12-26T01:12:26.711Z,82.42
2018-12-26T01:13:28.754Z,82.73
2018-12-26T01:14:26.537Z,81.80
2018-12-26T01:15:26.711Z,83.25
2018-12-26T01:16:26.519Z,83.15
2018-12-26T01:17:26.647Z,81.59
2018-12-26T01:18:26.481Z,81.18
2018-12-26T01:19:27.789Z,82.11
2018-12-26T01:20:26.572Z,82.01
2018-12-26T01:21:26.662Z,82.73
2018-12-26T01:22:26.463Z,82.73
2018-12-26T01:23:26.568Z,81.49
2018-12-26T01:24:26.426Z,81.70
2018-12-26T01:25:26.604Z,80.04
2018-12-26T01:26:26.390Z,80.93
2018-12-26T01:27:26.501Z,83.25
2018-12-26T01:28:26.387Z,82.42
2018-12-26T01:29:26.402Z,82.84
2018-12-26T01:30:26.362Z,83.04
2018-12-26T01:31:26.520Z,83.04
2018-12-26T01:32:26.326Z,81.70
2018-12-26T01:33:27.473Z,83.77
2018-12-26T01:34:26.306Z,82.32
2018-12-26T01:35:27.493Z,82.63
2018-12-26T01:36:26.283Z,81.07
2018-12-26T01:37:27.475Z,83.04
2018-12-26T01:38:26.278Z,83.46
2018-12-26T01:39:41.022Z,82.53
2018-12-26T01:40:26.263Z,83.15
2018-12-26T01:41:33.971Z,81.80
2018-12-26T01:42:26.222Z,83.56
2018-12-26T01:43:26.293Z,82.63
2018-12-26T01:44:26.196Z,83.04
2018-12-26T01:45:26.342Z,83.77
2018-12-26T01:46:26.182Z,83.46
2018-12-26T01:47:26.210Z,83.15
2018-12-26T01:48:26.153Z,83.67
2018-12-26T01:49:26.328Z,83.67
2018-12-26T01:50:26.143Z,82.84
2018-12-26T01:51:26.259Z,83.04
2018-12-26T01:52:26.116Z,83.15
2018-12-26T01:53:26.256Z,82.84
2018-12-26T01:54:26.094Z,82.84
2018-12-26T01:55:26.307Z,82.73
2018-12-26T01:56:27.990Z,81.70
2018-12-26T01:57:26.184Z,81.90
2018-12-26T01:58:26.051Z,83.77
2018-12-26T01:59:26.199Z,83.36
2018-12-26T02:00:26.037Z,83.87
2018-12-26T02:01:26.217Z,83.67
2018-12-26T02:02:26.008Z,83.15
2018-12-26T02:03:26.121Z,82.73
2018-12-26T02:04:25.984Z,82.94
2018-12-26T02:05:26.163Z,83.87
2018-12-26T02:06:25.954Z,83.15
2018-12-26T02:07:26.146Z,85.12
2018-12-26T02:08:25.939Z,83.67
2018-12-26T02:09:26.072Z,82.84
2018-12-26T02:10:25.937Z,81.90
2018-12-26T02:11:26.073Z,82.42
2018-12-26T02:12:25.888Z,82.42
2018-12-26T02:13:26.085Z,82.01
2018-12-26T02:14:25.871Z,81.70
2018-12-26T02:15:26.028Z,84.19
2018-12-26T02:16:25.855Z,84.39
2018-12-26T02:17:26.024Z,85.12
2018-12-26T02:18:25.826Z,83.87
2018-12-26T02:19:26.026Z,83.46
2018-12-26T02:20:25.842Z,82.73
2018-12-26T02:21:26.961Z,83.11
2018-12-26T02:22:25.781Z,83.15
2018-12-26T02:23:26.979Z,81.87
2018-12-26T02:24:25.771Z,80.41
2018-12-26T02:25:32.519Z,82.70
2018-12-26T02:26:25.751Z,83.63
2018-12-26T02:27:26.898Z,82.18
2018-12-26T02:28:25.714Z,81.07
2018-12-26T02:29:26.918Z,83.53
2018-12-26T02:30:25.702Z,82.84
2018-12-26T02:31:26.850Z,81.38
2018-12-26T02:32:25.673Z,83.87
2018-12-26T02:33:25.814Z,82.49
2018-12-26T02:34:25.651Z,81.35
2018-12-26T02:35:25.833Z,82.59
2018-12-26T02:36:25.652Z,81.14
2018-12-26T02:37:25.739Z,83.01
2018-12-26T02:38:25.718Z,84.36
2018-12-26T02:39:25.754Z,83.53
2018-12-26T02:40:25.582Z,81.80
2018-12-26T02:41:26.712Z,82.18
2018-12-26T02:42:25.580Z,83.11
2018-12-26T02:43:26.711Z,83.73
2018-12-26T02:44:25.556Z,83.84
2018-12-26T02:45:26.722Z,82.90
2018-12-26T02:46:25.532Z,83.94
2018-12-26T02:47:25.703Z,84.46
2018-12-26T02:48:25.497Z,84.08
2018-12-26T02:49:25.640Z,84.46
2018-12-26T02:50:25.477Z,83.73
2018-12-26T02:51:25.655Z,83.36
2018-12-26T02:52:25.455Z,83.77
2018-12-26T02:53:25.643Z,83.84
2018-12-26T02:54:25.430Z,82.07
2018-12-26T02:55:25.565Z,82.70
2018-12-26T02:56:25.423Z,83.73
2018-12-26T02:57:25.585Z,81.87
2018-12-26T02:58:25.391Z,83.63
2018-12-26T02:59:25.582Z,81.66
2018-12-26T03:00:25.369Z,82.59
2018-12-26T03:01:25.518Z,83.73
2018-12-26T03:02:25.338Z,81.66
2018-12-26T03:03:25.506Z,84.05
2018-12-26T03:04:25.330Z,85.08
2018-12-26T03:05:25.527Z,84.56
2018-12-26T03:06:25.322Z,83.63
2018-12-26T03:07:25.438Z,83.22
2018-12-26T03:08:25.291Z,84.98
2018-12-26T03:09:25.446Z,83.84
2018-12-26T03:10:25.249Z,83.01
2018-12-26T03:11:26.423Z,82.07
2018-12-26T03:12:25.227Z,81.72
2018-12-26T03:13:26.392Z,81.87
2018-12-26T03:14:25.220Z,83.59
2018-12-26T03:15:27.325Z,83.22
2018-12-26T03:16:25.199Z,84.56
2018-12-26T03:17:25.292Z,84.67
2018-12-26T03:18:25.162Z,84.98
2018-12-26T03:19:25.309Z,84.46
2018-12-26T03:20:25.143Z,85.81
2018-12-26T03:21:25.357Z,84.91
2018-12-26T03:22:25.122Z,84.46
2018-12-26T03:23:25.245Z,85.08
2018-12-26T03:24:25.099Z,83.11
2018-12-26T03:25:25.249Z,84.25
2018-12-26T03:26:25.110Z,83.63
2018-12-26T03:27:25.276Z,82.90
2018-12-26T03:28:25.134Z,84.46
2018-12-26T03:29:25.173Z,84.46
2018-12-26T03:30:25.038Z,84.46
2018-12-26T03:31:25.200Z,85.12
2018-12-26T03:32:25.047Z,83.98
2018-12-26T03:33:25.198Z,85.22
2018-12-26T03:34:24.990Z,83.73
2018-12-26T03:35:25.117Z,83.67
2018-12-26T03:36:24.964Z,83.04
2018-12-26T03:37:25.168Z,84.88
2018-12-26T03:38:24.949Z,84.70
2018-12-26T03:39:25.135Z,85.02
2018-12-26T03:40:24.932Z,85.12
2018-12-26T03:41:25.051Z,86.99
2018-12-26T03:42:24.911Z,86.88
2018-12-26T03:43:25.065Z,87.61
2018-12-26T03:44:24.877Z,85.85
2018-12-26T03:45:25.092Z,86.78
2018-12-26T03:46:24.861Z,86.99
2018-12-26T03:47:25.015Z,87.09
2018-12-26T03:48:24.830Z,86.78
2018-12-26T03:49:25.002Z,86.16
2018-12-26T03:50:24.816Z,87.19
2018-12-26T03:51:25.015Z,87.71
2018-12-26T03:52:24.822Z,86.05
2018-12-26T03:53:24.934Z,88.34
2018-12-26T03:54:24.765Z,88.44
2018-12-26T03:55:25.963Z,88.38
2018-12-26T03:56:24.748Z,88.38
2018-12-26T03:57:26.926Z,88.34
2018-12-26T03:58:24.729Z,88.17
2018-12-26T03:59:26.912Z,88.44
2018-12-26T04:00:24.717Z,88.17
2018-12-26T04:01:26.826Z,88.90
2018-12-26T04:02:24.699Z,89.11
2018-12-26T04:03:24.788Z,89.62
2018-12-26T04:04:24.669Z,90.66
2018-12-26T04:05:24.802Z,90.66
2018-12-26T04:06:24.644Z,90.62
2018-12-26T04:07:24.854Z,89.94
2018-12-26T04:08:24.612Z,90.56
2018-12-26T04:09:24.727Z,89.73
2018-12-26T04:10:24.592Z,90.45
2018-12-26T04:11:24.745Z,90.66
2018-12-26T04:12:24.585Z,90.87
2018-12-26T04:13:24.763Z,90.97
2018-12-26T04:14:24.547Z,91.28
2018-12-26T04:15:24.668Z,91.28
2018-12-26T04:16:24.532Z,90.87
2018-12-26T04:17:24.712Z,91.39
2018-12-26T04:18:24.512Z,91.49
2018-12-26T04:19:24.703Z,92.01
2018-12-26T04:20:24.501Z,91.80
2018-12-26T04:21:24.604Z,91.80
2018-12-26T04:22:24.491Z,92.32
2018-12-26T04:23:24.624Z,92.53
2018-12-26T04:24:24.445Z,92.01
2018-12-26T04:25:24.634Z,91.60
2018-12-26T04:26:24.430Z,91.74
2018-12-26T04:27:24.543Z,91.91
2018-12-26T04:28:24.409Z,91.28
2018-12-26T04:29:24.557Z,91.60
2018-12-26T04:30:24.375Z,91.70
2018-12-26T04:31:24.468Z,92.11
2018-12-26T04:32:24.358Z,92.11
2018-12-26T04:33:38.851Z,92.01
2018-12-26T04:34:24.325Z,92.11
2018-12-26T04:35:39.342Z,91.91
2018-12-26T04:36:24.305Z,91.86
2018-12-26T04:37:25.330Z,91.28
2018-12-26T04:38:24.304Z,92.01
2018-12-26T04:39:25.362Z,91.70
2018-12-26T04:40:24.264Z,91.66
2018-12-26T04:41:24.332Z,91.91
2018-12-26T04:42:24.243Z,91.70
2018-12-26T04:43:24.271Z,91.80
2018-12-26T04:44:24.223Z,92.28
2018-12-26T04:45:24.263Z,92.53
2018-12-26T04:46:24.194Z,91.70
2018-12-26T04:47:24.275Z,91.49
2018-12-26T04:48:24.188Z,90.87
2018-12-26T04:49:24.285Z,90.83
2018-12-26T04:50:24.154Z,90.35
2018-12-26T04:51:24.201Z,90.87
2018-12-26T04:52:24.134Z,90.04
2018-12-26T04:53:24.262Z,90.41
2018-12-26T04:54:24.111Z,90.41
2018-12-26T04:55:24.120Z,90.93
2018-12-26T04:56:24.085Z,91.39
2018-12-26T04:57:24.844Z,90.66
2018-12-26T04:58:24.080Z,91.66
2018-12-26T04:59:24.170Z,91.70
2018-12-26T05:00:24.047Z,91.14
2018-12-26T05:01:24.063Z,90.97
2018-12-26T05:02:24.024Z,91.08
2018-12-26T05:03:24.100Z,90.62
2018-12-26T05:04:23.998Z,89.62
2018-12-26T05:05:24.091Z,90.25
2018-12-26T05:06:23.984Z,90.62
2018-12-26T05:07:24.011Z,90.97
2018-12-26T05:08:23.978Z,89.62
2018-12-26T05:09:24.021Z,89.94
2018-12-26T05:10:23.950Z,90.56
2018-12-26T05:11:24.027Z,91.39
2018-12-26T05:12:23.916Z,91.70
2018-12-26T05:13:23.972Z,91.28
2018-12-26T05:14:23.891Z,90.41
2018-12-26T05:15:23.953Z,89.83
2018-12-26T05:16:23.872Z,90.45
2018-12-26T05:17:23.982Z,90.87
2018-12-26T05:18:23.866Z,90.35
2018-12-26T05:19:31.007Z,89.21
2018-12-26T05:20:23.824Z,89.42
2018-12-26T05:21:31.877Z,90.25
2018-12-26T05:22:23.805Z,90.31
2018-12-26T05:23:23.929Z,88.75
2018-12-26T05:24:24.188Z,90.45
2018-12-26T05:25:23.837Z,90.04
2018-12-26T05:26:23.763Z,90.45
2018-12-26T05:27:23.830Z,89.89
2018-12-26T05:28:23.768Z,89.31
2018-12-26T05:29:23.844Z,90.56
2018-12-26T05:30:23.718Z,91.60
2018-12-26T05:31:23.764Z,92.01
2018-12-26T05:32:23.714Z,90.04
2018-12-26T05:33:23.797Z,90.45
2018-12-26T05:34:23.679Z,91.18
2018-12-26T05:35:23.786Z,90.97
2018-12-26T05:36:23.654Z,90.97
2018-12-26T05:37:23.691Z,91.49
2018-12-26T05:38:23.727Z,90.56
2018-12-26T05:39:23.810Z,90.45
2018-12-26T05:40:23.609Z,89.42
2018-12-26T05:41:23.719Z,89.52
2018-12-26T05:42:23.595Z,89.27
2018-12-26T05:43:23.658Z,89.52
2018-12-26T05:44:23.574Z,88.79
2018-12-26T05:45:23.655Z,89.73
2018-12-26T05:46:23.550Z,89.69
2018-12-26T05:47:23.666Z,90.25
2018-12-26T05:48:23.542Z,90.25
2018-12-26T05:49:23.581Z,89.94
2018-12-26T05:50:23.506Z,89.73
2018-12-26T05:51:23.581Z,89.94
2018-12-26T05:52:23.486Z,89.11
2018-12-26T05:53:23.525Z,88.79
2018-12-26T05:54:23.453Z,89.42
2018-12-26T05:55:23.517Z,89.42
2018-12-26T05:56:23.447Z,90.25
2018-12-26T05:57:23.523Z,90.45
2018-12-26T05:58:23.437Z,89.83
2018-12-26T05:59:23.440Z,89.42
2018-12-26T06:00:23.388Z,90.45
2018-12-26T06:01:23.446Z,90.45
2018-12-26T06:02:23.370Z,90.25
2018-12-26T06:03:23.494Z,90.04
2018-12-26T06:04:23.348Z,90.04
2018-12-26T06:05:39.353Z,90.66
2018-12-26T06:06:23.327Z,91.08
2018-12-26T06:07:24.519Z,91.18
2018-12-26T06:08:23.319Z,90.45
2018-12-26T06:09:29.850Z,90.97
2018-12-26T06:10:23.284Z,91.08
2018-12-26T06:11:23.313Z,91.49
2018-12-26T06:12:23.269Z,91.39
2018-12-26T06:13:23.359Z,91.33
2018-12-26T06:14:23.240Z,90.87
2018-12-26T06:15:23.344Z,90.56
2018-12-26T06:16:23.221Z,90.56
2018-12-26T06:17:23.254Z,90.25
2018-12-26T06:18:23.229Z,91.08
2018-12-26T06:19:23.263Z,90.66
2018-12-26T06:20:23.176Z,90.97
2018-12-26T06:21:23.278Z,90.56
2018-12-26T06:22:23.151Z,90.25
2018-12-26T06:23:23.214Z,89.94
2018-12-26T06:24:23.128Z,90.45
2018-12-26T06:25:23.206Z,89.83
2018-12-26T06:26:23.110Z,90.56
2018-12-26T06:27:23.216Z,90.97
2018-12-26T06:28:23.117Z,90.77
2018-12-26T06:29:23.129Z,90.77
2018-12-26T06:30:23.061Z,90.66
2018-12-26T06:31:23.145Z,91.18
2018-12-26T06:32:24.172Z,90.77
2018-12-26T06:33:23.173Z,91.08
2018-12-26T06:34:23.035Z,91.08
2018-12-26T06:35:23.066Z,91.08
2018-12-26T06:36:22.996Z,90.56
2018-12-26T06:37:23.079Z,90.77
2018-12-26T06:38:22.989Z,90.66
2018-12-26T06:39:23.042Z,90.66
2018-12-26T06:40:22.974Z,90.04
2018-12-26T06:41:23.012Z,90.77
2018-12-26T06:42:22.942Z,91.08
2018-12-26T06:43:23.016Z,90.97
2018-12-26T06:44:22.926Z,90.77
2018-12-26T06:45:23.031Z,91.39
2018-12-26T06:46:22.886Z,91.60
2018-12-26T06:47:22.944Z,90.77
2018-12-26T06:48:22.934Z,90.56
2018-12-26T06:49:22.982Z,90.45
2018-12-26T06:50:22.841Z,90.97
2018-12-26T06:52:22.818Z,90.87
2018-12-26T06:53:29.434Z,90.45
2018-12-26T06:54:22.821Z,90.97
2018-12-26T06:55:29.345Z,90.25
2018-12-26T06:56:22.775Z,90.56
2018-12-26T06:57:22.805Z,90.66
2018-12-26T06:58:22.879Z,90.45
2018-12-26T06:59:22.851Z,90.35
2018-12-26T07:00:22.733Z,90.97
2018-12-26T07:01:22.841Z,90.14
2018-12-26T07:02:22.718Z,90.56
2018-12-26T07:03:22.815Z,91.08
2018-12-26T07:04:22.729Z,89.83
2018-12-26T07:05:22.761Z,89.83
2018-12-26T07:06:22.682Z,89.62
2018-12-26T07:07:22.772Z,89.73
2018-12-26T07:08:23.314Z,91.18
2018-12-26T07:09:22.710Z,90.45
2018-12-26T07:10:22.641Z,90.97
2018-12-26T07:11:22.703Z,90.56
2018-12-26T07:12:22.615Z,90.97
2018-12-26T07:13:22.713Z,90.45
2018-12-26T07:14:22.604Z,89.62
2018-12-26T07:15:22.630Z,89.83
2018-12-26T07:16:22.559Z,89.73
2018-12-26T07:17:22.677Z,90.14
2018-12-26T07:18:22.534Z,89.11
2018-12-26T07:19:22.678Z,90.35
2018-12-26T07:20:22.525Z,90.77
2018-12-26T07:21:22.562Z,89.42
2018-12-26T07:22:22.493Z,89.52
2018-12-26T07:23:22.578Z,89.21
2018-12-26T07:24:22.492Z,89.73
2018-12-26T07:25:22.607Z,89.73
2018-12-26T07:26:22.454Z,90.66
2018-12-26T07:27:22.512Z,90.25
2018-12-26T07:28:22.439Z,90.25
2018-12-26T07:29:22.557Z,89.94
2018-12-26T07:30:22.410Z,89.56
2018-12-26T07:31:22.528Z,89.42
2018-12-26T07:32:22.387Z,89.15
2018-12-26T07:33:30.451Z,89.67
2018-12-26T07:34:22.391Z,90.81
2018-12-26T07:35:22.455Z,90.87
2018-12-26T07:36:22.353Z,89.87
2018-12-26T07:37:22.472Z,89.98
2018-12-26T07:38:22.320Z,89.83
2018-12-26T07:39:24.474Z,90.45
2018-12-26T07:40:22.305Z,90.56
2018-12-26T07:41:24.342Z,90.39
2018-12-26T07:42:22.276Z,90.66
2018-12-26T07:43:22.302Z,90.70
2018-12-26T07:44:22.288Z,90.35
2018-12-26T07:45:22.319Z,90.66
2018-12-26T07:46:22.236Z,90.14
2018-12-26T07:47:22.335Z,90.19
2018-12-26T07:48:22.211Z,90.77
2018-12-26T07:49:22.243Z,90.87
2018-12-26T07:50:22.204Z,90.35
2018-12-26T07:51:22.257Z,90.87
2018-12-26T07:52:22.214Z,90.56
2018-12-26T07:53:22.271Z,91.18
2018-12-26T07:54:22.143Z,91.28
2018-12-26T07:55:22.206Z,90.39
2018-12-26T07:56:22.131Z,90.97
2018-12-26T07:57:22.200Z,90.77
2018-12-26T07:58:22.099Z,90.70
2018-12-26T07:59:22.227Z,91.18
2018-12-26T08:00:22.100Z,91.28
2018-12-26T08:01:22.123Z,91.80
2018-12-26T08:02:22.063Z,91.80
2018-12-26T08:03:22.133Z,91.53
2018-12-26T08:04:22.038Z,90.56
2018-12-26T08:05:22.176Z,91.85
2018-12-26T08:06:22.027Z,91.85
2018-12-26T08:07:22.066Z,92.01
2018-12-26T08:08:21.991Z,91.33
2018-12-26T08:09:22.072Z,90.87
2018-12-26T08:10:21.987Z,91.08
2018-12-26T08:11:22.089Z,91.91
2018-12-26T08:12:21.963Z,92.01
2018-12-26T08:13:22.113Z,92.11
2018-12-26T08:14:21.928Z,91.91
2018-12-26T08:15:22.045Z,91.70
2018-12-26T08:16:21.912Z,92.59
2018-12-26T08:17:22.034Z,91.41
2018-12-26T08:18:21.938Z,91.20
2018-12-26T08:19:21.948Z,91.55
2018-12-26T08:20:21.883Z,91.24
2018-12-26T08:21:22.986Z,91.00
2018-12-26T08:22:21.856Z,90.72
2018-12-26T08:23:21.965Z,90.69
2018-12-26T08:24:21.831Z,90.89
2018-12-26T08:25:28.040Z,90.41
2018-12-26T08:26:21.803Z,90.06
2018-12-26T08:27:23.837Z,90.37
2018-12-26T08:28:26.591Z,90.58
2018-12-26T08:29:22.826Z,90.89
2018-12-26T08:30:21.837Z,90.69
2018-12-26T08:31:21.838Z,91.00
2018-12-26T08:32:21.731Z,90.54
2018-12-26T08:33:21.832Z,90.75
2018-12-26T08:34:21.722Z,89.71
2018-12-26T08:35:21.773Z,89.92
2018-12-26T08:36:21.701Z,90.02
2018-12-26T08:37:21.760Z,89.61
2018-12-26T08:38:21.692Z,90.54
2018-12-26T08:39:21.773Z,90.79
2018-12-26T08:40:21.727Z,90.79
2018-12-26T08:41:21.685Z,91.24
2018-12-26T08:42:21.644Z,91.55
2018-12-26T08:43:21.719Z,91.76
2018-12-26T08:44:21.617Z,91.86
2018-12-26T08:45:21.726Z,91.20
2018-12-26T08:46:21.605Z,92.07
2018-12-26T08:47:21.728Z,91.72
2018-12-26T08:48:21.575Z,91.86
2018-12-26T08:49:21.630Z,92.07
2018-12-26T08:50:21.557Z,92.49
2018-12-26T08:51:21.679Z,92.18
2018-12-26T08:52:21.510Z,92.49
2018-12-26T08:53:21.684Z,92.18
2018-12-26T08:54:21.491Z,91.66
2018-12-26T08:55:21.581Z,91.97
2018-12-26T08:56:21.550Z,93.01
2018-12-26T08:57:21.590Z,92.69
2018-12-26T08:58:21.449Z,92.80
2018-12-26T08:59:21.551Z,92.80
2018-12-26T09:00:21.429Z,92.90
2018-12-26T09:01:21.546Z,92.69
2018-12-26T09:02:21.415Z,92.59
2018-12-26T09:03:21.558Z,92.18
2018-12-26T09:04:21.386Z,92.80
2018-12-26T09:05:21.433Z,92.49
2018-12-26T09:06:21.400Z,92.90
2018-12-26T09:07:22.489Z,93.32
2018-12-26T09:08:21.338Z,92.80
2018-12-26T09:09:21.465Z,92.59
2018-12-26T09:10:21.316Z,92.59
2018-12-26T09:11:21.423Z,92.49
2018-12-26T09:12:21.300Z,93.32
2018-12-26T09:13:22.419Z,93.12
2018-12-26T09:14:21.291Z,94.05
2018-12-26T09:15:22.335Z,94.15
2018-12-26T09:16:21.267Z,93.74
2018-12-26T09:17:21.318Z,94.15
2018-12-26T09:18:21.240Z,93.95
2018-12-26T09:19:21.327Z,94.05
2018-12-26T09:20:21.207Z,94.05
2018-12-26T09:21:21.278Z,93.95
2018-12-26T09:22:21.199Z,93.74
2018-12-26T09:23:21.267Z,93.80
2018-12-26T09:24:21.173Z,93.90
2018-12-26T09:25:21.265Z,94.05
2018-12-26T09:26:21.156Z,93.95
2018-12-26T09:27:21.299Z,94.15
2018-12-26T09:28:21.125Z,94.15
2018-12-26T09:29:21.193Z,94.15
2018-12-26T09:30:21.106Z,94.36
2018-12-26T09:31:21.234Z,94.57
2018-12-26T09:32:21.098Z,94.01
2018-12-26T09:33:21.111Z,94.15
2018-12-26T09:34:21.049Z,93.95
2018-12-26T09:35:21.138Z,94.67
2018-12-26T09:36:21.050Z,94.36
2018-12-26T09:37:28.924Z,94.67
2018-12-26T09:38:21.889Z,94.67
2018-12-26T09:39:21.051Z,94.88
2018-12-26T09:40:20.987Z,94.98
2018-12-26T09:41:21.147Z,94.98
2018-12-26T09:42:20.986Z,94.98
2018-12-26T09:43:21.080Z,95.19
2018-12-26T09:44:20.938Z,95.19
2018-12-26T09:45:20.989Z,94.88
2018-12-26T09:46:20.925Z,94.88
2018-12-26T09:47:21.036Z,94.67
2018-12-26T09:48:20.895Z,95.19
2018-12-26T09:49:20.927Z,95.09
2018-12-26T09:50:20.877Z,94.78
2018-12-26T09:51:20.951Z,94.98
2018-12-26T09:52:20.883Z,94.78
2018-12-26T09:53:28.828Z,95.15
2018-12-26T09:54:20.831Z,95.40
2018-12-26T09:55:20.962Z,94.88
2018-12-26T09:56:20.821Z,94.63
2018-12-26T09:57:22.847Z,94.73
2018-12-26T09:58:20.827Z,94.84
2018-12-26T09:59:21.815Z,94.84
2018-12-26T10:00:20.772Z,94.98
2018-12-26T10:01:20.799Z,94.78
2018-12-26T10:02:20.758Z,94.73
2018-12-26T10:03:20.808Z,95.19
2018-12-26T10:04:20.720Z,94.94
2018-12-26T10:05:20.917Z,95.15
2018-12-26T10:06:20.721Z,94.84
2018-12-26T10:07:20.787Z,95.04
2018-12-26T10:08:20.679Z,94.73
2018-12-26T10:09:20.808Z,94.84
2018-12-26T10:10:20.653Z,94.53
2018-12-26T10:11:21.682Z,94.67
2018-12-26T10:12:20.762Z,94.32
2018-12-26T10:13:20.682Z,94.42
2018-12-26T10:14:20.611Z,94.53
2018-12-26T10:15:20.778Z,94.42
2018-12-26T10:16:20.604Z,94.63
2018-12-26T10:17:20.625Z,94.73
2018-12-26T10:18:20.575Z,94.73
2018-12-26T10:19:20.612Z,94.73
2018-12-26T10:20:20.540Z,94.79
2018-12-26T10:21:21.546Z,94.58
2018-12-26T10:22:20.536Z,94.37
2018-12-26T10:23:20.546Z,94.53
2018-12-26T10:24:20.524Z,93.96
2018-12-26T10:25:20.569Z,94.11
2018-12-26T10:26:20.493Z,93.90
2018-12-26T10:27:20.604Z,94.06
2018-12-26T10:28:20.596Z,94.37
2018-12-26T10:29:20.477Z,94.37
2018-12-26T10:30:20.432Z,94.06
2018-12-26T10:31:20.497Z,94.27
2018-12-26T10:32:20.429Z,94.37
2018-12-26T10:33:20.513Z,94.27
2018-12-26T10:34:20.476Z,93.75
2018-12-26T10:35:20.413Z,94.17
2018-12-26T10:36:20.834Z,94.32
2018-12-26T10:37:20.455Z,93.85
2018-12-26T10:38:20.366Z,93.65
2018-12-26T10:39:22.397Z,93.85
2018-12-26T10:40:20.356Z,93.75
2018-12-26T10:41:20.350Z,94.06
2018-12-26T10:42:20.410Z,94.37
2018-12-26T10:43:22.309Z,93.65
2018-12-26T10:44:20.900Z,94.17
2018-12-26T10:45:21.298Z,94.06
2018-12-26T10:46:20.364Z,94.12
2018-12-26T10:47:21.315Z,93.85
2018-12-26T10:48:20.469Z,94.43
2018-12-26T10:49:20.306Z,94.27
2018-12-26T10:50:20.356Z,94.27
2018-12-26T10:51:20.315Z,94.27
2018-12-26T10:52:20.263Z,94.68
2018-12-26T10:53:20.305Z,95.00
2018-12-26T10:54:20.355Z,94.58
2018-12-26T10:55:20.241Z,94.58
2018-12-26T10:56:20.236Z,94.73
2018-12-26T10:57:20.278Z,94.58
2018-12-26T10:58:20.368Z,94.48
2018-12-26T10:59:20.167Z,94.68
2018-12-26T11:00:20.154Z,94.58
2018-12-26T11:01:20.189Z,94.68
2018-12-26T11:02:20.242Z,94.68
2018-12-26T11:03:20.136Z,94.48
2018-12-26T11:04:20.062Z,94.33
2018-12-26T11:05:20.340Z,94.48
2018-12-26T11:06:20.174Z,94.48
2018-12-26T11:07:20.138Z,95.01
2018-12-26T11:08:20.988Z,94.81
2018-12-26T11:09:20.030Z,93.98
2018-12-26T11:10:20.016Z,93.64
2018-12-26T11:11:20.111Z,91.36
2018-12-26T11:12:20.034Z,90.33
2018-12-26T11:13:20.002Z,90.06
2018-12-26T11:14:19.942Z,90.26
2018-12-26T11:15:19.968Z,90.62
2018-12-26T11:16:20.003Z,92.44
2018-12-26T11:17:19.992Z,91.45
2018-12-26T11:18:20.699Z,91.14
2018-12-26T11:19:20.064Z,91.55
2018-12-26T11:20:19.938Z,91.80
2018-12-26T11:21:19.931Z,91.91
2018-12-26T11:22:19.882Z,92.53
2018-12-26T11:23:20.980Z,92.57
2018-12-26T11:24:19.867Z,92.47
2018-12-26T11:25:19.936Z,94.02
2018-12-26T11:26:19.812Z,93.71
2018-12-26T11:27:34.557Z,93.71
2018-12-26T11:28:19.816Z,93.81
2018-12-26T11:29:27.335Z,93.40
2018-12-26T11:30:19.828Z,93.71
2018-12-26T11:31:19.780Z,93.56
2018-12-26T11:32:19.746Z,93.77
2018-12-26T11:33:20.834Z,92.43
2018-12-26T11:34:19.728Z,92.22
2018-12-26T11:35:19.799Z,92.43
2018-12-26T11:36:19.703Z,92.53
2018-12-26T11:37:19.712Z,92.57
2018-12-26T11:38:19.709Z,93.08
2018-12-26T11:39:19.724Z,93.71
2018-12-26T11:40:19.682Z,93.81
2018-12-26T11:41:19.758Z,93.91
2018-12-26T11:42:19.636Z,93.40
2018-12-26T11:43:19.686Z,93.81
2018-12-26T11:44:19.628Z,94.02
2018-12-26T11:45:19.825Z,93.71
2018-12-26T11:46:19.591Z,93.91
2018-12-26T11:47:20.714Z,93.81
2018-12-26T11:48:19.579Z,93.81
2018-12-26T11:49:19.622Z,93.81
2018-12-26T11:50:19.547Z,93.81
2018-12-26T11:51:19.647Z,93.91
2018-12-26T11:52:19.526Z,93.60
2018-12-26T11:53:19.624Z,93.50
2018-12-26T11:54:19.584Z,93.29
2018-12-26T11:55:19.543Z,93.81
2018-12-26T11:56:19.481Z,93.91
2018-12-26T11:57:19.541Z,93.60
2018-12-26T11:58:19.473Z,93.40
2018-12-26T11:59:27.007Z,93.75
2018-12-26T12:00:20.470Z,93.71
2018-12-26T12:01:19.581Z,93.33
2018-12-26T12:02:20.735Z,93.65
2018-12-26T12:03:19.480Z,93.91
2018-12-26T12:04:19.414Z,93.50
2018-12-26T12:05:19.494Z,93.75
2018-12-26T12:06:19.384Z,93.54
2018-12-26T12:07:21.453Z,94.06
2018-12-26T12:08:19.356Z,94.17
2018-12-26T12:09:20.374Z,93.96
2018-12-26T12:10:19.327Z,93.75
2018-12-26T12:11:19.331Z,94.06
2018-12-26T12:12:19.338Z,93.85
2018-12-26T12:13:19.350Z,93.29
2018-12-26T12:14:19.302Z,93.65
2018-12-26T12:15:20.398Z,93.60
2018-12-26T12:16:19.261Z,93.85
2018-12-26T12:17:19.370Z,93.40
2018-12-26T12:18:19.252Z,93.60
2018-12-26T12:19:19.311Z,93.60
2018-12-26T12:20:19.221Z,93.40
2018-12-26T12:21:19.296Z,94.02
2018-12-26T12:22:19.205Z,93.81
2018-12-26T12:23:19.209Z,94.12
2018-12-26T12:24:19.194Z,93.60
2018-12-26T12:25:19.222Z,93.60
2018-12-26T12:26:19.155Z,94.02
2018-12-26T12:27:19.238Z,94.02
2018-12-26T12:28:19.143Z,93.81
2018-12-26T12:29:19.280Z,93.60
2018-12-26T12:30:19.108Z,92.98
2018-12-26T12:31:19.160Z,93.08
2018-12-26T12:32:19.089Z,93.40
2018-12-26T12:33:19.176Z,93.81
2018-12-26T12:34:19.077Z,93.71
2018-12-26T12:35:19.114Z,93.71
2018-12-26T12:36:19.044Z,93.71
2018-12-26T12:37:19.112Z,93.60
2018-12-26T12:38:19.020Z,93.81
2018-12-26T12:39:19.112Z,93.60
2018-12-26T12:40:19.030Z,93.71
2018-12-26T12:41:19.024Z,93.71
2018-12-26T12:42:18.975Z,93.91
2018-12-26T12:43:19.037Z,93.71
2018-12-26T12:44:18.953Z,93.71
2018-12-26T12:45:18.977Z,93.71
2018-12-26T12:46:18.946Z,93.87
2018-12-26T12:47:18.962Z,92.68
2018-12-26T12:48:18.910Z,93.04
2018-12-26T12:49:18.975Z,92.47
2018-12-26T12:50:18.908Z,92.57
2018-12-26T12:51:18.888Z,93.08
2018-12-26T12:52:18.883Z,93.08
2018-12-26T12:53:19.924Z,93.71